Nova Gloria, Brazil
Current Conditions -  °F | °C
As of 10:00 PM on Tuesday 21 Oct 2014 (Local Time) from SBAN Reporting Station
Thunderstorm Thunderstorm  
Wind Chill: 72°   Ceiling: Unl
Heat Index: 72°   Visibility: 6mi
Dew Point: 61°   Wind: 5mph
Humidity: 69%   Direction: 50°NE
Pressure: 30.06"   Gusts: NA
Location:  15.14°S, 49.57°W
Report Text: SBAN 220000Z 05004KT 9999 VCTS FEW030 FEW035CB 22/16 Q1018
Loading
Personal Weather Stations






























Interactive Weather Map
Tropical Storm Tracking
New forecast layout! Learn more

10-Day Weather Forecast

Advertisements
Track Severe Weather on mobile